sensor_id;sensor_type;location;lat;lon;timestamp;P1;durP1;ratioP1;P2;durP2;ratioP2
12719;SDS011;6424;48.520;11.228;2023-05-09T00:00:16;15.67;;;14.07;;
12719;SDS011;6424;48.520;11.228;2023-05-09T00:02:57;16.23;;;13.97;;
12719;SDS011;6424;48.520;11.228;2023-05-09T00:05:38;15.17;;;13.40;;
12719;SDS011;6424;48.520;11.228;2023-05-09T00:08:20;16.13;;;14.33;;
12719;SDS011;6424;48.520;11.228;2023-05-09T00:11:01;16.97;;;13.63;;
12719;SDS011;6424;48.520;11.228;2023-05-09T00:13:27;14.57;;;12.73;;
12719;SDS011;6424;48.520;11.228;2023-05-09T00:16:08;13.93;;;12.17;;
12719;SDS011;6424;48.520;11.228;2023-05-09T00:18:49;16.37;;;14.67;;
12719;SDS011;6424;48.520;11.228;2023-05-09T00:21:30;15.60;;;13.70;;
12719;SDS011;6424;48.520;11.228;2023-05-09T00:24:11;15.73;;;14.10;;
12719;SDS011;6424;48.520;11.228;2023-05-09T00:26:51;14.87;;;13.23;;
12719;SDS011;6424;48.520;11.228;2023-05-09T00:29:32;16.57;;;13.87;;
12719;SDS011;6424;48.520;11.228;2023-05-09T00:32:13;14.57;;;13.07;;
12719;SDS011;6424;48.520;11.228;2023-05-09T00:34:54;14.87;;;13.27;;
12719;SDS011;6424;48.520;11.228;2023-05-09T00:37:34;17.13;;;14.17;;
12719;SDS011;6424;48.520;11.228;2023-05-09T00:40:15;15.23;;;13.63;;
12719;SDS011;6424;48.520;11.228;2023-05-09T00:42:57;15.67;;;13.97;;
12719;SDS011;6424;48.520;11.228;2023-05-09T00:45:38;15.83;;;14.13;;
12719;SDS011;6424;48.520;11.228;2023-05-09T00:48:19;16.30;;;14.60;;
12719;SDS011;6424;48.520;11.228;2023-05-09T00:51:01;18.37;;;14.77;;
12719;SDS011;6424;48.520;11.228;2023-05-09T00:53:42;15.23;;;13.73;;
12719;SDS011;6424;48.520;11.228;2023-05-09T00:56:24;15.13;;;13.53;;
12719;SDS011;6424;48.520;11.228;2023-05-09T00:58:49;15.87;;;14.13;;
12719;SDS011;6424;48.520;11.228;2023-05-09T01:01:31;15.90;;;14.20;;
12719;SDS011;6424;48.520;11.228;2023-05-09T01:04:12;17.20;;;14.90;;
12719;SDS011;6424;48.520;11.228;2023-05-09T01:06:57;16.30;;;13.93;;
12719;SDS011;6424;48.520;11.228;2023-05-09T01:15:53;17.17;;;14.57;;
12719;SDS011;6424;48.520;11.228;2023-05-09T01:19:13;16.93;;;14.63;;
12719;SDS011;6424;48.520;11.228;2023-05-09T01:22:10;16.53;;;14.10;;
12719;SDS011;6424;48.520;11.228;2023-05-09T01:31:14;15.33;;;13.73;;
12719;SDS011;6424;48.520;11.228;2023-05-09T01:33:57;16.03;;;13.50;;
12719;SDS011;6424;48.520;11.228;2023-05-09T01:36:27;16.03;;;14.17;;
12719;SDS011;6424;48.520;11.228;2023-05-09T01:39:12;15.00;;;13.40;;
12719;SDS011;6424;48.520;11.228;2023-05-09T01:41:54;15.57;;;13.97;;
12719;SDS011;6424;48.520;11.228;2023-05-09T01:44:38;16.43;;;14.73;;
12719;SDS011;6424;48.520;11.228;2023-05-09T01:47:21;15.43;;;13.63;;
12719;SDS011;6424;48.520;11.228;2023-05-09T01:50:03;14.37;;;12.87;;
12719;SDS011;6424;48.520;11.228;2023-05-09T01:52:46;16.87;;;12.37;;
12719;SDS011;6424;48.520;11.228;2023-05-09T01:55:29;13.80;;;12.40;;
12719;SDS011;6424;48.520;11.228;2023-05-09T01:58:13;13.67;;;12.27;;
12719;SDS011;6424;48.520;11.228;2023-05-09T02:00:55;14.03;;;12.63;;
12719;SDS011;6424;48.520;11.228;2023-05-09T02:03:22;13.43;;;12.13;;
12719;SDS011;6424;48.520;11.228;2023-05-09T02:06:04;13.17;;;11.87;;
12719;SDS011;6424;48.520;11.228;2023-05-09T02:08:46;13.73;;;12.27;;
12719;SDS011;6424;48.520;11.228;2023-05-09T02:11:28;13.47;;;11.97;;
12719;SDS011;6424;48.520;11.228;2023-05-09T02:13:54;13.17;;;11.87;;
12719;SDS011;6424;48.520;11.228;2023-05-09T02:16:34;13.20;;;10.90;;
12719;SDS011;6424;48.520;11.228;2023-05-09T02:19:15;12.37;;;11.03;;
12719;SDS011;6424;48.520;11.228;2023-05-09T02:21:56;12.47;;;11.17;;
12719;SDS011;6424;48.520;11.228;2023-05-09T02:24:37;12.77;;;11.20;;
12719;SDS011;6424;48.520;11.228;2023-05-09T02:27:19;11.77;;;10.57;;
12719;SDS011;6424;48.520;11.228;2023-05-09T02:29:49;11.40;;;10.30;;
12719;SDS011;6424;48.520;11.228;2023-05-09T02:32:34;10.70;;;9.60;;
12719;SDS011;6424;48.520;11.228;2023-05-09T02:35:17;10.60;;;9.60;;
12719;SDS011;6424;48.520;11.228;2023-05-09T02:37:59;9.73;;;8.70;;
12719;SDS011;6424;48.520;11.228;2023-05-09T02:40:44;12.03;;;9.30;;
12719;SDS011;6424;48.520;11.228;2023-05-09T02:43:26;11.07;;;9.37;;
12719;SDS011;6424;48.520;11.228;2023-05-09T02:46:08;10.63;;;9.10;;
12719;SDS011;6424;48.520;11.228;2023-05-09T02:48:34;10.57;;;8.57;;
12719;SDS011;6424;48.520;11.228;2023-05-09T02:51:15;9.03;;;8.23;;
12719;SDS011;6424;48.520;11.228;2023-05-09T02:53:56;9.27;;;8.20;;
12719;SDS011;6424;48.520;11.228;2023-05-09T02:56:37;12.10;;;7.20;;
12719;SDS011;6424;48.520;11.228;2023-05-09T02:59:18;9.57;;;8.63;;
12719;SDS011;6424;48.520;11.228;2023-05-09T03:01:59;9.17;;;7.73;;
12719;SDS011;6424;48.520;11.228;2023-05-09T03:04:40;9.37;;;7.87;;
12719;SDS011;6424;48.520;11.228;2023-05-09T03:07:21;10.73;;;7.83;;
12719;SDS011;6424;48.520;11.228;2023-05-09T03:10:02;7.90;;;7.17;;
12719;SDS011;6424;48.520;11.228;2023-05-09T03:12:43;9.73;;;7.57;;
12719;SDS011;6424;48.520;11.228;2023-05-09T03:15:24;7.80;;;7.07;;
12719;SDS011;6424;48.520;11.228;2023-05-09T03:18:04;7.60;;;6.73;;
12719;SDS011;6424;48.520;11.228;2023-05-09T03:20:45;8.77;;;7.60;;
12719;SDS011;6424;48.520;11.228;2023-05-09T03:23:26;8.37;;;7.50;;
12719;SDS011;6424;48.520;11.228;2023-05-09T03:25:52;8.10;;;7.30;;
12719;SDS011;6424;48.520;11.228;2023-05-09T03:28:32;7.97;;;7.17;;
12719;SDS011;6424;48.520;11.228;2023-05-09T03:31:13;8.03;;;7.23;;
12719;SDS011;6424;48.520;11.228;2023-05-09T03:33:55;8.27;;;7.47;;
12719;SDS011;6424;48.520;11.228;2023-05-09T03:36:35;8.20;;;7.10;;
12719;SDS011;6424;48.520;11.228;2023-05-09T03:39:16;7.00;;;6.30;;
12719;SDS011;6424;48.520;11.228;2023-05-09T03:41:57;8.60;;;7.10;;
12719;SDS011;6424;48.520;11.228;2023-05-09T03:44:38;7.77;;;6.93;;
12719;SDS011;6424;48.520;11.228;2023-05-09T03:47:18;7.40;;;6.70;;
12719;SDS011;6424;48.520;11.228;2023-05-09T03:49:44;7.70;;;6.90;;
12719;SDS011;6424;48.520;11.228;2023-05-09T03:52:10;9.43;;;6.87;;
12719;SDS011;6424;48.520;11.228;2023-05-09T03:54:51;8.10;;;7.30;;
12719;SDS011;6424;48.520;11.228;2023-05-09T03:57:33;7.50;;;6.80;;
12719;SDS011;6424;48.520;11.228;2023-05-09T04:00:14;8.63;;;7.73;;
12719;SDS011;6424;48.520;11.228;2023-05-09T04:02:55;8.53;;;7.30;;
12719;SDS011;6424;48.520;11.228;2023-05-09T04:05:36;8.43;;;7.53;;
12719;SDS011;6424;48.520;11.228;2023-05-09T04:08:17;9.33;;;7.17;;
12719;SDS011;6424;48.520;11.228;2023-05-09T04:10:57;7.40;;;6.70;;
12719;SDS011;6424;48.520;11.228;2023-05-09T04:13:38;8.33;;;7.50;;
12719;SDS011;6424;48.520;11.228;2023-05-09T04:16:19;8.53;;;7.50;;
12719;SDS011;6424;48.520;11.228;2023-05-09T04:19:00;6.90;;;6.30;;
12719;SDS011;6424;48.520;11.228;2023-05-09T04:21:41;7.30;;;6.60;;
12719;SDS011;6424;48.520;11.228;2023-05-09T04:24:22;8.63;;;7.07;;
12719;SDS011;6424;48.520;11.228;2023-05-09T04:27:03;6.80;;;6.20;;
12719;SDS011;6424;48.520;11.228;2023-05-09T04:29:44;7.03;;;6.43;;
12719;SDS011;6424;48.520;11.228;2023-05-09T04:32:24;7.77;;;6.97;;
12719;SDS011;6424;48.520;11.228;2023-05-09T04:34:51;7.33;;;6.63;;
12719;SDS011;6424;48.520;11.228;2023-05-09T04:37:31;9.10;;;6.53;;
12719;SDS011;6424;48.520;11.228;2023-05-09T04:40:12;8.17;;;6.50;;
12719;SDS011;6424;48.520;11.228;2023-05-09T04:42:38;8.03;;;6.27;;
12719;SDS011;6424;48.520;11.228;2023-05-09T04:45:20;8.70;;;6.17;;
12719;SDS011;6424;48.520;11.228;2023-05-09T04:48:01;7.63;;;6.93;;
12719;SDS011;6424;48.520;11.228;2023-05-09T04:50:41;7.00;;;6.40;;
12719;SDS011;6424;48.520;11.228;2023-05-09T04:53:22;7.43;;;6.73;;
12719;SDS011;6424;48.520;11.228;2023-05-09T04:56:03;7.50;;;6.70;;
12719;SDS011;6424;48.520;11.228;2023-05-09T04:58:44;7.70;;;6.20;;
12719;SDS011;6424;48.520;11.228;2023-05-09T05:01:24;7.37;;;6.17;;
12719;SDS011;6424;48.520;11.228;2023-05-09T05:04:05;7.57;;;6.77;;
12719;SDS011;6424;48.520;11.228;2023-05-09T05:06:31;6.67;;;5.93;;
12719;SDS011;6424;48.520;11.228;2023-05-09T05:09:12;7.40;;;6.70;;
12719;SDS011;6424;48.520;11.228;2023-05-09T05:11:53;8.13;;;6.60;;
12719;SDS011;6424;48.520;11.228;2023-05-09T05:14:33;8.77;;;7.57;;
12719;SDS011;6424;48.520;11.228;2023-05-09T05:17:14;6.90;;;6.30;;
12719;SDS011;6424;48.520;11.228;2023-05-09T05:19:57;6.20;;;5.53;;
12719;SDS011;6424;48.520;11.228;2023-05-09T05:22:38;6.67;;;6.07;;
12719;SDS011;6424;48.520;11.228;2023-05-09T05:25:04;6.07;;;5.07;;
12719;SDS011;6424;48.520;11.228;2023-05-09T05:27:45;6.03;;;5.53;;
12719;SDS011;6424;48.520;11.228;2023-05-09T05:30:26;6.03;;;5.53;;
12719;SDS011;6424;48.520;11.228;2023-05-09T05:33:07;6.13;;;5.63;;
12719;SDS011;6424;48.520;11.228;2023-05-09T05:35:48;5.47;;;4.70;;
12719;SDS011;6424;48.520;11.228;2023-05-09T05:38:13;6.13;;;5.33;;
12719;SDS011;6424;48.520;11.228;2023-05-09T05:40:54;6.57;;;5.20;;
12719;SDS011;6424;48.520;11.228;2023-05-09T05:43:35;5.53;;;5.00;;
12719;SDS011;6424;48.520;11.228;2023-05-09T05:46:01;6.43;;;5.10;;
12719;SDS011;6424;48.520;11.228;2023-05-09T05:48:42;6.60;;;5.50;;
12719;SDS011;6424;48.520;11.228;2023-05-09T05:51:23;7.17;;;5.10;;
12719;SDS011;6424;48.520;11.228;2023-05-09T05:54:03;5.53;;;5.03;;
12719;SDS011;6424;48.520;11.228;2023-05-09T05:56:44;6.37;;;5.27;;
12719;SDS011;6424;48.520;11.228;2023-05-09T05:59:25;6.40;;;5.30;;
12719;SDS011;6424;48.520;11.228;2023-05-09T06:02:06;5.93;;;5.37;;
12719;SDS011;6424;48.520;11.228;2023-05-09T06:04:46;6.03;;;5.43;;
12719;SDS011;6424;48.520;11.228;2023-05-09T06:07:27;7.40;;;5.57;;
12719;SDS011;6424;48.520;11.228;2023-05-09T06:10:08;5.77;;;5.20;;
12719;SDS011;6424;48.520;11.228;2023-05-09T06:12:50;5.63;;;5.00;;
12719;SDS011;6424;48.520;11.228;2023-05-09T06:15:30;5.37;;;4.93;;
12719;SDS011;6424;48.520;11.228;2023-05-09T06:18:11;5.80;;;5.23;;
12719;SDS011;6424;48.520;11.228;2023-05-09T06:20:52;7.50;;;5.33;;
12719;SDS011;6424;48.520;11.228;2023-05-09T06:23:33;5.47;;;4.97;;
12719;SDS011;6424;48.520;11.228;2023-05-09T06:26:15;6.60;;;4.93;;
12719;SDS011;6424;48.520;11.228;2023-05-09T06:28:56;8.53;;;5.27;;
12719;SDS011;6424;48.520;11.228;2023-05-09T06:31:37;5.50;;;5.00;;
12719;SDS011;6424;48.520;11.228;2023-05-09T06:34:19;5.90;;;5.40;;
12719;SDS011;6424;48.520;11.228;2023-05-09T06:37:00;5.30;;;4.90;;
12719;SDS011;6424;48.520;11.228;2023-05-09T06:39:41;7.50;;;5.53;;
12719;SDS011;6424;48.520;11.228;2023-05-09T06:42:22;5.90;;;5.30;;
12719;SDS011;6424;48.520;11.228;2023-05-09T06:45:02;6.20;;;5.60;;
12719;SDS011;6424;48.520;11.228;2023-05-09T06:47:43;8.33;;;5.60;;
12719;SDS011;6424;48.520;11.228;2023-05-09T06:50:24;6.03;;;5.37;;
12719;SDS011;6424;48.520;11.228;2023-05-09T06:53:05;6.10;;;5.53;;
12719;SDS011;6424;48.520;11.228;2023-05-09T06:55:46;6.90;;;5.63;;
12719;SDS011;6424;48.520;11.228;2023-05-09T06:58:27;6.60;;;5.60;;
12719;SDS011;6424;48.520;11.228;2023-05-09T07:01:08;6.60;;;5.90;;
12719;SDS011;6424;48.520;11.228;2023-05-09T07:03:49;8.30;;;6.07;;
12719;SDS011;6424;48.520;11.228;2023-05-09T07:06:29;5.87;;;5.37;;
12719;SDS011;6424;48.520;11.228;2023-05-09T07:09:10;6.53;;;5.80;;
12719;SDS011;6424;48.520;11.228;2023-05-09T07:11:54;6.73;;;5.47;;
12719;SDS011;6424;48.520;11.228;2023-05-09T07:14:35;5.53;;;5.03;;
12719;SDS011;6424;48.520;11.228;2023-05-09T07:17:00;5.90;;;5.30;;
12719;SDS011;6424;48.520;11.228;2023-05-09T07:19:41;7.43;;;5.77;;
12719;SDS011;6424;48.520;11.228;2023-05-09T07:22:22;6.47;;;5.20;;
12719;SDS011;6424;48.520;11.228;2023-05-09T07:25:04;6.50;;;5.80;;
12719;SDS011;6424;48.520;11.228;2023-05-09T07:27:48;6.23;;;5.63;;
12719;SDS011;6424;48.520;11.228;2023-05-09T07:30:28;5.63;;;5.07;;
12719;SDS011;6424;48.520;11.228;2023-05-09T07:32:54;6.57;;;5.40;;
12719;SDS011;6424;48.520;11.228;2023-05-09T07:35:35;6.97;;;5.53;;
12719;SDS011;6424;48.520;11.228;2023-05-09T07:38:16;6.20;;;5.60;;
12719;SDS011;6424;48.520;11.228;2023-05-09T07:40:57;6.20;;;5.60;;
12719;SDS011;6424;48.520;11.228;2023-05-09T07:43:37;7.73;;;5.47;;
12719;SDS011;6424;48.520;11.228;2023-05-09T07:46:03;7.67;;;6.43;;
12719;SDS011;6424;48.520;11.228;2023-05-09T07:48:44;8.30;;;5.87;;
12719;SDS011;6424;48.520;11.228;2023-05-09T07:51:25;10.47;;;5.63;;
12719;SDS011;6424;48.520;11.228;2023-05-09T07:53:51;7.07;;;6.07;;
12719;SDS011;6424;48.520;11.228;2023-05-09T07:56:34;8.83;;;6.23;;
12719;SDS011;6424;48.520;11.228;2023-05-09T07:59:14;6.80;;;6.10;;
12719;SDS011;6424;48.520;11.228;2023-05-09T08:01:56;6.80;;;6.10;;
12719;SDS011;6424;48.520;11.228;2023-05-09T08:04:37;9.13;;;6.47;;
12719;SDS011;6424;48.520;11.228;2023-05-09T08:07:18;8.00;;;6.30;;
12719;SDS011;6424;48.520;11.228;2023-05-09T08:09:58;7.17;;;6.47;;
12719;SDS011;6424;48.520;11.228;2023-05-09T08:12:39;6.60;;;6.00;;
12719;SDS011;6424;48.520;11.228;2023-05-09T08:15:20;8.23;;;6.40;;
12719;SDS011;6424;48.520;11.228;2023-05-09T08:18:01;8.23;;;6.97;;
12719;SDS011;6424;48.520;11.228;2023-05-09T08:20:42;7.70;;;6.90;;
12719;SDS011;6424;48.520;11.228;2023-05-09T08:23:08;8.10;;;6.00;;
12719;SDS011;6424;48.520;11.228;2023-05-09T08:25:51;5.90;;;5.33;;
12719;SDS011;6424;48.520;11.228;2023-05-09T08:28:33;6.17;;;5.57;;
12719;SDS011;6424;48.520;11.228;2023-05-09T08:31:14;6.00;;;5.50;;
12719;SDS011;6424;48.520;11.228;2023-05-09T08:33:40;7.57;;;6.13;;
12719;SDS011;6424;48.520;11.228;2023-05-09T08:36:20;7.53;;;6.00;;
12719;SDS011;6424;48.520;11.228;2023-05-09T08:39:01;6.07;;;5.47;;
12719;SDS011;6424;48.520;11.228;2023-05-09T08:41:42;6.67;;;6.07;;
12719;SDS011;6424;48.520;11.228;2023-05-09T08:44:24;7.10;;;5.80;;
12719;SDS011;6424;48.520;11.228;2023-05-09T08:47:05;6.27;;;5.63;;
12719;SDS011;6424;48.520;11.228;2023-05-09T08:49:46;5.47;;;4.97;;
12719;SDS011;6424;48.520;11.228;2023-05-09T08:52:30;8.00;;;5.80;;
12719;SDS011;6424;48.520;11.228;2023-05-09T08:55:12;7.20;;;6.10;;
12719;SDS011;6424;48.520;11.228;2023-05-09T08:57:53;6.43;;;5.73;;
12719;SDS011;6424;48.520;11.228;2023-05-09T09:00:35;6.27;;;5.67;;
12719;SDS011;6424;48.520;11.228;2023-05-09T09:03:17;6.73;;;6.03;;
12719;SDS011;6424;48.520;11.228;2023-05-09T09:05:59;5.83;;;5.23;;
12719;SDS011;6424;48.520;11.228;2023-05-09T09:08:41;6.40;;;5.80;;
12719;SDS011;6424;48.520;11.228;2023-05-09T09:11:23;5.77;;;5.27;;
12719;SDS011;6424;48.520;11.228;2023-05-09T09:14:25;5.83;;;5.33;;
12719;SDS011;6424;48.520;11.228;2023-05-09T09:16:52;6.70;;;5.87;;
12719;SDS011;6424;48.520;11.228;2023-05-09T09:19:34;6.47;;;5.80;;
12719;SDS011;6424;48.520;11.228;2023-05-09T09:22:19;7.13;;;6.43;;
12719;SDS011;6424;48.520;11.228;2023-05-09T09:25:00;6.93;;;6.20;;
12719;SDS011;6424;48.520;11.228;2023-05-09T09:27:41;6.90;;;6.30;;
12719;SDS011;6424;48.520;11.228;2023-05-09T09:30:22;6.17;;;5.60;;
12719;SDS011;6424;48.520;11.228;2023-05-09T09:33:05;7.70;;;6.90;;
12719;SDS011;6424;48.520;11.228;2023-05-09T09:35:47;7.00;;;6.30;;
12719;SDS011;6424;48.520;11.228;2023-05-09T09:38:29;7.40;;;6.40;;
12719;SDS011;6424;48.520;11.228;2023-05-09T09:41:19;7.63;;;6.23;;
12719;SDS011;6424;48.520;11.228;2023-05-09T09:44:07;7.93;;;7.20;;
12719;SDS011;6424;48.520;11.228;2023-05-09T09:46:53;6.83;;;6.23;;
12719;SDS011;6424;48.520;11.228;2023-05-09T09:49:34;7.07;;;6.47;;
12719;SDS011;6424;48.520;11.228;2023-05-09T09:52:21;7.43;;;6.00;;
12719;SDS011;6424;48.520;11.228;2023-05-09T09:54:53;8.23;;;6.70;;
12719;SDS011;6424;48.520;11.228;2023-05-09T09:57:36;7.50;;;6.83;;
12719;SDS011;6424;48.520;11.228;2023-05-09T10:00:23;5.97;;;5.47;;
12719;SDS011;6424;48.520;11.228;2023-05-09T10:03:06;6.97;;;6.13;;
12719;SDS011;6424;48.520;11.228;2023-05-09T10:06:00;6.97;;;6.17;;
12719;SDS011;6424;48.520;11.228;2023-05-09T10:08:43;6.83;;;6.17;;
12719;SDS011;6424;48.520;11.228;2023-05-09T10:11:28;7.00;;;6.40;;
12719;SDS011;6424;48.520;11.228;2023-05-09T10:13:53;6.83;;;6.10;;
12719;SDS011;6424;48.520;11.228;2023-05-09T10:16:34;7.00;;;6.30;;
12719;SDS011;6424;48.520;11.228;2023-05-09T10:19:17;7.20;;;6.50;;
12719;SDS011;6424;48.520;11.228;2023-05-09T10:22:04;7.87;;;7.10;;
12719;SDS011;6424;48.520;11.228;2023-05-09T10:24:54;7.17;;;6.37;;
12719;SDS011;6424;48.520;11.228;2023-05-09T10:27:45;7.73;;;6.93;;
12719;SDS011;6424;48.520;11.228;2023-05-09T10:30:29;8.00;;;6.93;;
12719;SDS011;6424;48.520;11.228;2023-05-09T10:33:13;6.90;;;6.30;;
12719;SDS011;6424;48.520;11.228;2023-05-09T10:35:59;6.63;;;6.03;;
12719;SDS011;6424;48.520;11.228;2023-05-09T10:38:41;7.20;;;6.57;;
12719;SDS011;6424;48.520;11.228;2023-05-09T10:41:22;7.13;;;6.53;;
12719;SDS011;6424;48.520;11.228;2023-05-09T10:44:04;9.03;;;6.53;;
12719;SDS011;6424;48.520;11.228;2023-05-09T10:46:46;8.77;;;6.80;;
12719;SDS011;6424;48.520;11.228;2023-05-09T10:49:27;7.47;;;6.77;;
12719;SDS011;6424;48.520;11.228;2023-05-09T10:52:09;7.63;;;6.20;;
12719;SDS011;6424;48.520;11.228;2023-05-09T10:54:57;7.97;;;7.17;;
12719;SDS011;6424;48.520;11.228;2023-05-09T10:57:40;6.80;;;6.20;;
12719;SDS011;6424;48.520;11.228;2023-05-09T11:00:32;7.60;;;7.00;;
12719;SDS011;6424;48.520;11.228;2023-05-09T11:03:13;7.60;;;6.63;;
12719;SDS011;6424;48.520;11.228;2023-05-09T11:05:54;7.37;;;6.13;;
12719;SDS011;6424;48.520;11.228;2023-05-09T11:08:37;6.00;;;5.50;;
12719;SDS011;6424;48.520;11.228;2023-05-09T11:11:22;5.80;;;5.30;;
12719;SDS011;6424;48.520;11.228;2023-05-09T11:14:06;6.40;;;5.80;;
12719;SDS011;6424;48.520;11.228;2023-05-09T11:16:57;7.20;;;6.50;;
12719;SDS011;6424;48.520;11.228;2023-05-09T11:19:55;7.80;;;6.77;;
12719;SDS011;6424;48.520;11.228;2023-05-09T11:22:39;7.07;;;6.03;;
12719;SDS011;6424;48.520;11.228;2023-05-09T11:25:24;7.13;;;6.53;;
12719;SDS011;6424;48.520;11.228;2023-05-09T11:28:07;7.50;;;6.80;;
12719;SDS011;6424;48.520;11.228;2023-05-09T11:30:34;6.63;;;5.93;;
12719;SDS011;6424;48.520;11.228;2023-05-09T11:33:23;5.87;;;5.10;;
12719;SDS011;6424;48.520;11.228;2023-05-09T11:39:09;6.23;;;5.63;;
12719;SDS011;6424;48.520;11.228;2023-05-09T11:41:50;7.00;;;6.27;;
12719;SDS011;6424;48.520;11.228;2023-05-09T11:44:31;6.80;;;6.07;;
12719;SDS011;6424;48.520;11.228;2023-05-09T11:47:15;6.90;;;6.30;;
12719;SDS011;6424;48.520;11.228;2023-05-09T11:49:44;7.00;;;6.30;;
12719;SDS011;6424;48.520;11.228;2023-05-09T11:52:25;6.30;;;5.47;;
12719;SDS011;6424;48.520;11.228;2023-05-09T11:54:51;6.60;;;5.90;;
12719;SDS011;6424;48.520;11.228;2023-05-09T11:57:32;5.93;;;5.30;;
12719;SDS011;6424;48.520;11.228;2023-05-09T12:00:20;5.40;;;4.80;;
12719;SDS011;6424;48.520;11.228;2023-05-09T12:03:04;5.40;;;4.83;;
12719;SDS011;6424;48.520;11.228;2023-05-09T12:05:46;5.47;;;4.97;;
12719;SDS011;6424;48.520;11.228;2023-05-09T12:08:28;5.07;;;4.57;;
12719;SDS011;6424;48.520;11.228;2023-05-09T12:11:09;5.50;;;5.00;;
12719;SDS011;6424;48.520;11.228;2023-05-09T12:13:50;5.23;;;4.73;;
12719;SDS011;6424;48.520;11.228;2023-05-09T12:16:17;4.27;;;3.87;;
12719;SDS011;6424;48.520;11.228;2023-05-09T12:18:59;5.53;;;4.97;;
12719;SDS011;6424;48.520;11.228;2023-05-09T12:21:39;4.70;;;3.90;;
12719;SDS011;6424;48.520;11.228;2023-05-09T12:24:05;4.50;;;4.10;;
12719;SDS011;6424;48.520;11.228;2023-05-09T12:26:47;4.03;;;3.63;;
12719;SDS011;6424;48.520;11.228;2023-05-09T12:29:28;5.20;;;3.90;;
12719;SDS011;6424;48.520;11.228;2023-05-09T12:32:11;4.97;;;3.30;;
12719;SDS011;6424;48.520;11.228;2023-05-09T12:34:54;4.37;;;3.70;;
12719;SDS011;6424;48.520;11.228;2023-05-09T12:37:35;3.87;;;3.57;;
12719;SDS011;6424;48.520;11.228;2023-05-09T12:40:16;3.97;;;3.57;;
12719;SDS011;6424;48.520;11.228;2023-05-09T12:42:56;4.60;;;3.50;;
12719;SDS011;6424;48.520;11.228;2023-05-09T12:45:42;3.50;;;3.20;;
12719;SDS011;6424;48.520;11.228;2023-05-09T12:48:23;3.90;;;3.50;;
12719;SDS011;6424;48.520;11.228;2023-05-09T12:51:04;4.23;;;3.80;;
12719;SDS011;6424;48.520;11.228;2023-05-09T12:53:46;4.10;;;3.73;;
12719;SDS011;6424;48.520;11.228;2023-05-09T12:56:32;4.70;;;4.17;;
12719;SDS011;6424;48.520;11.228;2023-05-09T12:59:13;3.80;;;3.20;;
12719;SDS011;6424;48.520;11.228;2023-05-09T13:02:00;4.27;;;3.10;;
12719;SDS011;6424;48.520;11.228;2023-05-09T13:04:26;4.43;;;3.03;;
12719;SDS011;6424;48.520;11.228;2023-05-09T13:07:08;3.27;;;2.87;;
12719;SDS011;6424;48.520;11.228;2023-05-09T13:09:34;3.67;;;3.20;;
12719;SDS011;6424;48.520;11.228;2023-05-09T13:12:16;4.97;;;3.13;;
12719;SDS011;6424;48.520;11.228;2023-05-09T13:14:58;2.87;;;2.43;;
12719;SDS011;6424;48.520;11.228;2023-05-09T13:17:39;3.20;;;2.90;;
12719;SDS011;6424;48.520;11.228;2023-05-09T13:20:20;7.07;;;3.63;;
12719;SDS011;6424;48.520;11.228;2023-05-09T13:23:01;6.33;;;3.70;;
12719;SDS011;6424;48.520;11.228;2023-05-09T13:25:42;4.57;;;4.17;;
12719;SDS011;6424;48.520;11.228;2023-05-09T13:28:23;4.53;;;4.10;;
12719;SDS011;6424;48.520;11.228;2023-05-09T13:31:03;3.93;;;3.53;;
12719;SDS011;6424;48.520;11.228;2023-05-09T13:33:44;3.40;;;3.10;;
12719;SDS011;6424;48.520;11.228;2023-05-09T13:36:25;6.20;;;4.27;;
12719;SDS011;6424;48.520;11.228;2023-05-09T13:39:06;4.47;;;3.30;;
12719;SDS011;6424;48.520;11.228;2023-05-09T13:41:47;6.17;;;4.50;;
12719;SDS011;6424;48.520;11.228;2023-05-09T13:44:27;4.87;;;3.70;;
12719;SDS011;6424;48.520;11.228;2023-05-09T13:47:09;4.57;;;4.03;;
12719;SDS011;6424;48.520;11.228;2023-05-09T13:49:50;4.97;;;4.43;;
12719;SDS011;6424;48.520;11.228;2023-05-09T13:52:31;4.93;;;4.50;;
12719;SDS011;6424;48.520;11.228;2023-05-09T13:55:12;4.30;;;3.27;;
12719;SDS011;6424;48.520;11.228;2023-05-09T13:57:53;4.57;;;3.83;;
12719;SDS011;6424;48.520;11.228;2023-05-09T14:00:34;5.00;;;4.50;;
12719;SDS011;6424;48.520;11.228;2023-05-09T14:03:03;4.63;;;4.13;;
12719;SDS011;6424;48.520;11.228;2023-05-09T14:05:43;6.10;;;4.40;;
12719;SDS011;6424;48.520;11.228;2023-05-09T14:08:24;4.90;;;3.80;;
12719;SDS011;6424;48.520;11.228;2023-05-09T14:11:05;4.13;;;3.73;;
12719;SDS011;6424;48.520;11.228;2023-05-09T14:13:47;5.73;;;4.33;;
12719;SDS011;6424;48.520;11.228;2023-05-09T14:16:28;4.60;;;3.30;;
12719;SDS011;6424;48.520;11.228;2023-05-09T14:19:09;3.53;;;3.20;;
12719;SDS011;6424;48.520;11.228;2023-05-09T14:21:35;5.13;;;3.60;;
12719;SDS011;6424;48.520;11.228;2023-05-09T14:24:01;3.50;;;3.20;;
12719;SDS011;6424;48.520;11.228;2023-05-09T14:26:42;2.77;;;2.30;;
12719;SDS011;6424;48.520;11.228;2023-05-09T14:29:24;2.43;;;2.23;;
12719;SDS011;6424;48.520;11.228;2023-05-09T14:32:05;4.30;;;3.13;;
12719;SDS011;6424;48.520;11.228;2023-05-09T14:34:47;4.90;;;3.30;;
12719;SDS011;6424;48.520;11.228;2023-05-09T14:37:30;4.60;;;3.30;;
12719;SDS011;6424;48.520;11.228;2023-05-09T14:40:11;3.30;;;3.00;;
12719;SDS011;6424;48.520;11.228;2023-05-09T14:42:52;3.47;;;2.77;;
12719;SDS011;6424;48.520;11.228;2023-05-09T14:45:33;3.57;;;2.90;;
12719;SDS011;6424;48.520;11.228;2023-05-09T14:48:14;4.63;;;2.87;;
12719;SDS011;6424;48.520;11.228;2023-05-09T14:50:55;7.57;;;2.90;;
12719;SDS011;6424;48.520;11.228;2023-05-09T14:53:36;3.80;;;3.50;;
12719;SDS011;6424;48.520;11.228;2023-05-09T14:56:18;4.00;;;2.70;;
12719;SDS011;6424;48.520;11.228;2023-05-09T14:58:59;5.00;;;3.20;;
12719;SDS011;6424;48.520;11.228;2023-05-09T15:01:40;4.63;;;3.60;;
12719;SDS011;6424;48.520;11.228;2023-05-09T15:04:21;3.60;;;3.30;;
12719;SDS011;6424;48.520;11.228;2023-05-09T15:07:04;3.30;;;3.00;;
12719;SDS011;6424;48.520;11.228;2023-05-09T15:09:30;4.60;;;2.87;;
12719;SDS011;6424;48.520;11.228;2023-05-09T15:12:10;6.30;;;3.43;;
12719;SDS011;6424;48.520;11.228;2023-05-09T15:14:51;4.10;;;3.70;;
12719;SDS011;6424;48.520;11.228;2023-05-09T15:17:34;3.60;;;3.23;;
12719;SDS011;6424;48.520;11.228;2023-05-09T15:20:15;4.30;;;3.60;;
12719;SDS011;6424;48.520;11.228;2023-05-09T15:22:59;3.33;;;3.03;;
12719;SDS011;6424;48.520;11.228;2023-05-09T15:25:40;3.97;;;3.10;;
12719;SDS011;6424;48.520;11.228;2023-05-09T15:28:21;4.03;;;2.93;;
12719;SDS011;6424;48.520;11.228;2023-05-09T15:31:02;3.20;;;2.90;;
12719;SDS011;6424;48.520;11.228;2023-05-09T15:33:43;5.63;;;3.10;;
12719;SDS011;6424;48.520;11.228;2023-05-09T15:36:24;6.17;;;3.70;;
12719;SDS011;6424;48.520;11.228;2023-05-09T15:39:08;6.00;;;3.60;;
12719;SDS011;6424;48.520;11.228;2023-05-09T15:41:49;3.67;;;3.23;;
12719;SDS011;6424;48.520;11.228;2023-05-09T15:44:30;4.40;;;4.00;;
12719;SDS011;6424;48.520;11.228;2023-05-09T15:47:10;4.67;;;4.27;;
12719;SDS011;6424;48.520;11.228;2023-05-09T15:49:51;4.47;;;3.67;;
12719;SDS011;6424;48.520;11.228;2023-05-09T15:52:32;3.37;;;3.07;;
12719;SDS011;6424;48.520;11.228;2023-05-09T15:55:13;4.30;;;3.90;;
12719;SDS011;6424;48.520;11.228;2023-05-09T15:57:39;4.67;;;3.80;;
12719;SDS011;6424;48.520;11.228;2023-05-09T16:00:19;5.73;;;3.67;;
12719;SDS011;6424;48.520;11.228;2023-05-09T16:02:45;5.03;;;3.73;;
12719;SDS011;6424;48.520;11.228;2023-05-09T16:05:26;6.23;;;3.83;;
12719;SDS011;6424;48.520;11.228;2023-05-09T16:08:07;4.27;;;3.87;;
12719;SDS011;6424;48.520;11.228;2023-05-09T16:10:48;4.07;;;3.67;;
12719;SDS011;6424;48.520;11.228;2023-05-09T16:13:28;4.27;;;3.60;;
12719;SDS011;6424;48.520;11.228;2023-05-09T16:16:09;6.70;;;4.57;;